createdAt,value
2023-06-17T00:02:14.740Z,4.07
2023-06-17T00:04:43.041Z,3.90
2023-06-17T00:07:11.494Z,3.80
2023-06-17T00:09:42.163Z,4.20
2023-06-17T00:12:13.573Z,3.80
2023-06-17T00:14:43.225Z,3.70
2023-06-17T00:17:12.186Z,3.97
2023-06-17T00:19:41.317Z,4.17
2023-06-17T00:22:10.669Z,3.70
2023-06-17T00:24:39.211Z,4.27
2023-06-17T00:27:07.973Z,3.33
2023-06-17T00:29:37.715Z,4.33
2023-06-17T00:32:06.478Z,3.97
2023-06-17T00:34:34.786Z,4.10
2023-06-17T00:37:03.100Z,3.80
2023-06-17T00:39:31.389Z,4.30
2023-06-17T00:41:59.703Z,3.60
2023-06-17T00:44:28.000Z,4.63
2023-06-17T00:46:58.801Z,5.20
2023-06-17T00:49:35.001Z,5.03
2023-06-17T00:52:23.723Z,4.10
2023-06-17T00:54:54.425Z,4.33
2023-06-17T00:57:24.459Z,3.97
2023-06-17T00:59:53.438Z,4.40
2023-06-17T01:02:26.790Z,4.17
2023-06-17T01:04:56.989Z,4.33
2023-06-17T01:07:44.174Z,4.80
2023-06-17T01:10:19.387Z,4.20
2023-06-17T01:12:50.189Z,4.20
2023-06-17T01:15:19.657Z,3.60
2023-06-17T01:17:53.709Z,3.70
2023-06-17T01:20:23.010Z,4.00
2023-06-17T01:22:55.730Z,3.73
2023-06-17T01:25:30.865Z,4.40
2023-06-17T01:28:02.958Z,4.00
2023-06-17T01:30:31.780Z,4.30
2023-06-17T01:33:01.969Z,5.07
2023-06-17T01:35:33.967Z,4.20
2023-06-17T01:38:10.002Z,4.63
2023-06-17T01:40:42.433Z,4.60
2023-06-17T01:43:12.572Z,4.60
2023-06-17T01:45:42.442Z,5.20
2023-06-17T01:48:11.299Z,5.17
2023-06-17T01:50:39.823Z,5.30
2023-06-17T01:53:08.512Z,5.83
2023-06-17T01:55:36.886Z,5.30
2023-06-17T01:58:06.793Z,5.73
2023-06-17T02:00:35.263Z,6.20
2023-06-17T02:03:03.738Z,4.40
2023-06-17T02:05:32.210Z,5.23
2023-06-17T02:08:01.591Z,5.50
2023-06-17T02:10:33.872Z,5.57
2023-06-17T02:13:05.080Z,5.20
2023-06-17T02:15:35.058Z,5.63
2023-06-17T02:18:03.730Z,5.10
2023-06-17T02:20:32.084Z,5.63
2023-06-17T02:23:00.538Z,5.70
2023-06-17T02:25:30.248Z,4.60
2023-06-17T02:27:58.683Z,5.60
2023-06-17T02:30:27.232Z,5.70
2023-06-17T02:32:57.114Z,5.60
2023-06-17T02:35:25.594Z,5.33
2023-06-17T02:37:54.929Z,5.17
2023-06-17T02:40:23.944Z,5.47
2023-06-17T02:42:54.036Z,4.73
2023-06-17T02:45:22.334Z,5.60
2023-06-17T02:47:51.955Z,5.30
2023-06-17T02:50:24.662Z,4.60
2023-06-17T02:52:57.239Z,4.50
2023-06-17T02:55:28.499Z,5.10
2023-06-17T02:57:58.743Z,4.77
2023-06-17T03:00:32.092Z,4.70
2023-06-17T03:03:00.942Z,5.60
2023-06-17T03:05:31.395Z,5.33
2023-06-17T03:07:59.948Z,5.50
2023-06-17T03:10:28.538Z,5.20
2023-06-17T03:13:06.031Z,5.60
2023-06-17T03:15:35.076Z,6.80
2023-06-17T03:18:05.143Z,5.90
2023-06-17T03:20:36.086Z,6.30
2023-06-17T03:23:05.624Z,5.07
2023-06-17T03:25:34.112Z,6.00
2023-06-17T03:28:03.804Z,5.40
2023-06-17T03:30:32.775Z,5.40
2023-06-17T03:33:03.101Z,5.73
2023-06-17T03:35:32.602Z,6.97
2023-06-17T03:38:02.850Z,6.07
2023-06-17T03:40:31.210Z,5.53
2023-06-17T03:43:01.911Z,6.30
2023-06-17T03:45:31.807Z,5.43
2023-06-17T03:48:02.275Z,5.80
2023-06-17T03:50:32.079Z,6.23
2023-06-17T03:53:01.962Z,5.03
2023-06-17T03:55:31.443Z,5.67
2023-06-17T03:58:01.313Z,6.13
2023-06-17T04:00:32.404Z,6.13
2023-06-17T04:03:00.850Z,6.27
2023-06-17T04:05:34.508Z,6.17
2023-06-17T04:08:05.286Z,5.90
2023-06-17T04:10:35.751Z,5.83
2023-06-17T04:13:04.073Z,6.50
2023-06-17T04:15:32.690Z,6.20
2023-06-17T04:18:03.297Z,6.40
2023-06-17T04:20:35.935Z,6.17
2023-06-17T04:23:05.928Z,6.73
2023-06-17T04:25:38.026Z,6.20
2023-06-17T04:28:09.909Z,6.10
2023-06-17T04:30:41.040Z,6.00
2023-06-17T04:33:12.917Z,5.10
2023-06-17T04:35:43.135Z,6.23
2023-06-17T04:38:13.422Z,5.80
2023-06-17T04:40:43.634Z,6.50
2023-06-17T04:43:13.077Z,5.87
2023-06-17T04:45:41.402Z,5.43
2023-06-17T04:48:10.497Z,6.17
2023-06-17T04:50:39.892Z,5.47
2023-06-17T04:53:08.901Z,5.33
2023-06-17T04:55:40.549Z,5.80
2023-06-17T04:58:11.677Z,7.00
2023-06-17T05:01:00.456Z,5.10
2023-06-17T05:03:32.329Z,6.03
2023-06-17T05:06:01.089Z,5.50
2023-06-17T05:08:31.882Z,6.13
2023-06-17T05:11:03.798Z,6.40
2023-06-17T05:13:33.693Z,6.07
2023-06-17T05:16:02.306Z,5.77
2023-06-17T05:18:32.631Z,5.20
2023-06-17T05:21:01.013Z,5.97
2023-06-17T05:23:29.956Z,6.80
2023-06-17T05:25:58.368Z,5.40
2023-06-17T05:28:28.152Z,5.17
2023-06-17T05:30:56.689Z,5.77
2023-06-17T05:33:25.674Z,5.83
2023-06-17T05:35:55.445Z,5.70
2023-06-17T05:38:23.746Z,4.37
2023-06-17T05:40:52.140Z,5.00
2023-06-17T05:43:20.586Z,5.93
2023-06-17T05:45:50.469Z,5.30
2023-06-17T05:48:19.558Z,5.87
2023-06-17T05:50:48.760Z,5.97
2023-06-17T05:53:17.408Z,5.90
2023-06-17T05:55:46.073Z,6.47
2023-06-17T05:58:15.356Z,5.40
2023-06-17T06:00:53.483Z,4.90
2023-06-17T06:03:21.884Z,5.47
2023-06-17T06:05:50.961Z,4.73
2023-06-17T06:08:21.266Z,4.70
2023-06-17T06:10:49.602Z,5.40
2023-06-17T06:13:18.142Z,4.90
2023-06-17T06:15:46.744Z,4.97
2023-06-17T06:18:17.100Z,5.97
2023-06-17T06:20:45.458Z,6.00
2023-06-17T06:23:13.922Z,5.00
2023-06-17T06:25:42.821Z,5.60
2023-06-17T06:28:11.248Z,5.47
2023-06-17T06:30:40.484Z,6.10
2023-06-17T06:33:09.086Z,5.80
2023-06-17T06:35:38.898Z,5.73
2023-06-17T06:38:09.576Z,6.87
2023-06-17T06:40:38.073Z,5.80
2023-06-17T06:43:06.939Z,6.53
2023-06-17T06:45:50.168Z,6.23
2023-06-17T06:48:18.766Z,6.83
2023-06-17T06:50:48.730Z,7.13
2023-06-17T06:53:20.493Z,6.00
2023-06-17T06:55:48.917Z,6.50
2023-06-17T06:58:17.630Z,7.70
2023-06-17T07:00:46.931Z,6.90
2023-06-17T07:03:15.965Z,6.00
2023-06-17T07:05:44.804Z,6.50
2023-06-17T07:08:15.435Z,5.93
2023-06-17T07:10:44.064Z,6.30
2023-06-17T07:13:12.936Z,6.10
2023-06-17T07:15:43.859Z,6.77
2023-06-17T07:18:15.572Z,5.03
2023-06-17T07:20:44.720Z,5.33
2023-06-17T07:23:15.477Z,6.20
2023-06-17T07:25:43.987Z,5.70
2023-06-17T07:28:13.221Z,5.63
2023-06-17T07:30:42.876Z,5.60
2023-06-17T07:33:11.408Z,5.40
2023-06-17T07:35:40.214Z,5.90
2023-06-17T07:38:09.314Z,5.50
2023-06-17T07:40:39.694Z,7.20
2023-06-17T07:43:08.158Z,7.30
2023-06-17T07:45:36.509Z,6.20
2023-06-17T07:48:05.037Z,5.63
2023-06-17T07:50:33.535Z,5.70
2023-06-17T07:53:02.003Z,5.53
2023-06-17T07:55:31.315Z,5.13
2023-06-17T07:58:00.980Z,5.83
2023-06-17T08:00:29.373Z,4.93
2023-06-17T08:02:57.937Z,4.70
2023-06-17T08:05:26.505Z,4.10
2023-06-17T08:07:55.025Z,4.53
2023-06-17T08:10:23.812Z,4.50
2023-06-17T08:12:52.294Z,3.83
2023-06-17T08:15:23.443Z,4.20
2023-06-17T08:17:53.917Z,3.97
2023-06-17T08:20:23.041Z,4.17
2023-06-17T08:22:51.711Z,3.77
2023-06-17T08:25:20.064Z,3.67
2023-06-17T08:27:49.348Z,3.70
2023-06-17T08:30:18.637Z,4.17
2023-06-17T08:32:48.770Z,3.33
2023-06-17T08:35:17.816Z,3.83
2023-06-17T08:37:47.021Z,3.57
2023-06-17T08:40:16.712Z,3.40
2023-06-17T08:42:45.334Z,3.87
2023-06-17T08:45:14.737Z,2.77
2023-06-17T08:47:44.455Z,2.97
2023-06-17T08:50:15.666Z,3.73
2023-06-17T08:52:45.644Z,3.37
2023-06-17T08:55:14.577Z,3.17
2023-06-17T08:57:43.223Z,2.97
2023-06-17T09:00:12.973Z,2.80
2023-06-17T09:02:45.661Z,2.67
2023-06-17T09:05:16.373Z,3.33
2023-06-17T09:07:44.929Z,3.07
2023-06-17T09:10:17.882Z,3.80
2023-06-17T09:12:46.401Z,3.07
2023-06-17T09:15:18.124Z,3.63
2023-06-17T09:17:47.794Z,3.80
2023-06-17T09:20:19.129Z,3.37
2023-06-17T09:22:49.920Z,3.23
2023-06-17T09:25:19.750Z,3.37
2023-06-17T09:28:05.463Z,3.70
2023-06-17T09:30:43.618Z,3.13
2023-06-17T09:33:23.196Z,2.77
2023-06-17T09:36:00.920Z,2.93
2023-06-17T09:38:30.145Z,3.50
2023-06-17T09:40:59.863Z,3.60
2023-06-17T09:43:29.771Z,3.73
2023-06-17T09:46:00.885Z,3.03
2023-06-17T09:48:33.082Z,3.23
2023-06-17T09:51:06.597Z,3.10
2023-06-17T09:53:38.471Z,3.10
2023-06-17T09:56:12.363Z,3.03
2023-06-17T09:58:44.343Z,3.17
2023-06-17T10:01:14.634Z,3.00
2023-06-17T10:03:43.108Z,3.13
2023-06-17T10:06:14.173Z,3.37
2023-06-17T10:08:45.687Z,2.80
2023-06-17T10:11:15.348Z,2.70
2023-06-17T10:13:45.794Z,3.60
2023-06-17T10:16:17.568Z,3.10
2023-06-17T10:18:51.174Z,3.30
2023-06-17T10:21:25.436Z,3.57
2023-06-17T10:23:56.157Z,3.10
2023-06-17T10:26:25.110Z,4.07
2023-06-17T10:29:00.699Z,3.20
2023-06-17T10:31:31.150Z,3.70
2023-06-17T10:34:04.618Z,3.57
2023-06-17T10:36:36.510Z,3.40
2023-06-17T10:39:11.394Z,3.37
2023-06-17T10:42:01.285Z,3.40
2023-06-17T10:44:42.108Z,3.37
2023-06-17T10:47:24.228Z,3.50
2023-06-17T10:49:55.130Z,3.43
2023-06-17T10:52:24.969Z,3.83
2023-06-17T10:54:55.264Z,3.50
2023-06-17T10:57:34.020Z,2.80
2023-06-17T11:00:08.146Z,3.40
2023-06-17T11:02:38.567Z,3.17
2023-06-17T11:05:08.466Z,3.40
2023-06-17T11:07:38.297Z,3.87
2023-06-17T11:10:07.635Z,3.60
2023-06-17T11:12:37.188Z,3.70
2023-06-17T11:15:08.353Z,3.80
2023-06-17T11:17:36.772Z,3.73
2023-06-17T11:20:08.147Z,3.90
2023-06-17T11:22:40.281Z,3.10
2023-06-17T11:25:11.541Z,3.13
2023-06-17T11:27:42.153Z,3.00
2023-06-17T11:30:13.274Z,2.83
2023-06-17T11:32:43.491Z,3.27
2023-06-17T11:35:12.779Z,3.53
2023-06-17T11:37:43.428Z,3.13
2023-06-17T11:40:13.389Z,3.47
2023-06-17T11:42:42.225Z,2.97
2023-06-17T11:45:11.118Z,3.13
2023-06-17T11:47:39.530Z,2.97
2023-06-17T11:50:09.357Z,3.40
2023-06-17T11:52:38.047Z,3.07
2023-06-17T11:55:14.578Z,3.10
2023-06-17T11:57:44.614Z,3.20
2023-06-17T12:00:14.313Z,3.30
2023-06-17T12:02:43.017Z,3.77
2023-06-17T12:05:12.211Z,3.47
2023-06-17T12:07:41.711Z,2.90
2023-06-17T12:10:13.810Z,3.00
2023-06-17T12:12:42.539Z,2.83
2023-06-17T12:17:44.051Z,3.60
2023-06-17T12:20:17.108Z,3.00
2023-06-17T12:22:46.025Z,3.30
2023-06-17T12:25:16.030Z,2.80
2023-06-17T12:27:45.061Z,3.30
2023-06-17T12:30:15.884Z,3.17
2023-06-17T12:32:45.080Z,2.87
2023-06-17T12:35:17.712Z,2.97
2023-06-17T12:37:46.742Z,3.73
2023-06-17T12:40:16.542Z,3.20
2023-06-17T12:42:44.914Z,3.13
2023-06-17T12:45:14.267Z,3.13
2023-06-17T12:47:43.228Z,3.67
2023-06-17T12:50:12.355Z,3.20
2023-06-17T12:52:42.509Z,3.37
2023-06-17T12:55:11.277Z,2.90
2023-06-17T12:57:40.969Z,2.97
2023-06-17T13:00:11.911Z,2.93
2023-06-17T13:02:40.707Z,3.30
2023-06-17T13:05:09.902Z,2.67
2023-06-17T13:07:38.427Z,3.27
2023-06-17T13:10:07.935Z,3.10
2023-06-17T13:12:36.336Z,3.40
2023-06-17T13:15:07.035Z,3.13
2023-06-17T13:17:35.846Z,3.37
2023-06-17T13:20:04.373Z,3.27
2023-06-17T13:22:33.355Z,3.30
2023-06-17T13:25:01.872Z,3.80
2023-06-17T13:27:30.976Z,3.23
2023-06-17T13:30:00.005Z,3.70
2023-06-17T13:32:29.974Z,3.17
2023-06-17T13:34:58.381Z,3.47
2023-06-17T13:37:27.135Z,3.20
2023-06-17T13:39:56.415Z,3.20
2023-06-17T13:42:24.962Z,3.33
2023-06-17T13:44:53.252Z,3.00
2023-06-17T13:47:21.558Z,3.03
2023-06-17T13:49:51.257Z,3.77
2023-06-17T13:52:19.744Z,3.60
2023-06-17T13:54:48.129Z,2.70
2023-06-17T13:57:16.486Z,3.13
2023-06-17T13:59:45.075Z,2.97
2023-06-17T14:02:13.773Z,3.40
2023-06-17T14:04:43.391Z,3.70
2023-06-17T14:07:13.274Z,2.90
2023-06-17T14:09:41.755Z,3.13
2023-06-17T14:12:10.523Z,3.20
2023-06-17T14:14:39.111Z,3.70
2023-06-17T14:17:07.816Z,3.10
2023-06-17T14:19:36.641Z,4.00
2023-06-17T14:22:07.236Z,3.17
2023-06-17T14:24:39.610Z,4.03
2023-06-17T14:27:35.221Z,3.50
2023-06-17T14:30:03.753Z,3.87
2023-06-17T14:32:32.818Z,3.60
2023-06-17T14:35:01.321Z,3.30
2023-06-17T14:37:30.732Z,3.60
2023-06-17T14:40:00.835Z,3.23
2023-06-17T14:42:29.290Z,3.47
2023-06-17T14:44:57.618Z,3.10
2023-06-17T14:47:26.132Z,3.60
2023-06-17T14:49:54.736Z,3.37
2023-06-17T14:52:24.447Z,3.30
2023-06-17T14:54:54.445Z,3.00
2023-06-17T14:57:24.252Z,3.43
2023-06-17T14:59:52.801Z,3.00
2023-06-17T15:02:31.293Z,3.17
2023-06-17T15:04:59.929Z,4.40
2023-06-17T15:07:28.183Z,3.90
2023-06-17T15:09:56.437Z,3.13
2023-06-17T15:12:26.160Z,4.77
2023-06-17T15:14:54.689Z,3.80
2023-06-17T15:17:23.291Z,3.00
2023-06-17T15:19:51.675Z,3.60
2023-06-17T15:22:20.464Z,2.97
2023-06-17T15:24:48.751Z,3.50
2023-06-17T15:27:17.100Z,3.63
2023-06-17T15:29:46.837Z,3.40
2023-06-17T15:32:15.197Z,2.90
2023-06-17T15:34:43.590Z,3.07
2023-06-17T15:37:12.047Z,3.03
2023-06-17T15:39:40.371Z,3.20
2023-06-17T15:42:09.356Z,3.03
2023-06-17T15:44:37.745Z,10.30
2023-06-17T15:47:07.860Z,18.37
2023-06-17T15:49:36.905Z,16.33
2023-06-17T15:52:06.466Z,13.80
2023-06-17T15:54:34.757Z,12.33
2023-06-17T15:57:05.247Z,14.00
2023-06-17T15:59:36.355Z,12.97
2023-06-17T16:02:05.118Z,13.67
2023-06-17T16:04:36.676Z,8.20
2023-06-17T16:07:06.782Z,6.00
2023-06-17T16:09:36.765Z,5.20
2023-06-17T16:12:06.299Z,4.33
2023-06-17T16:14:36.348Z,8.50
2023-06-17T16:17:07.021Z,12.83
2023-06-17T16:19:37.339Z,9.90
2023-06-17T16:22:11.251Z,7.73
2023-06-17T16:24:40.404Z,6.27
2023-06-17T16:27:09.570Z,42.83
2023-06-17T16:29:37.876Z,34.70
2023-06-17T16:32:06.851Z,23.30
2023-06-17T16:34:37.069Z,15.57
2023-06-17T16:37:06.017Z,12.40
2023-06-17T16:39:34.488Z,9.83
2023-06-17T16:42:06.623Z,7.20
2023-06-17T16:44:36.121Z,5.70
2023-06-17T16:47:04.868Z,4.30
2023-06-17T16:49:33.252Z,3.50
2023-06-17T16:52:03.294Z,3.37
2023-06-17T16:54:31.792Z,3.30
2023-06-17T16:57:00.171Z,3.10
2023-06-17T16:59:28.527Z,3.30
2023-06-17T17:01:57.424Z,3.77
2023-06-17T17:04:25.728Z,3.83
2023-06-17T17:06:53.968Z,3.20
2023-06-17T17:09:23.634Z,3.20
2023-06-17T17:11:51.935Z,4.20
2023-06-17T17:14:20.313Z,3.40
2023-06-17T17:16:48.618Z,3.47
2023-06-17T17:19:17.043Z,3.33
2023-06-17T17:21:46.452Z,3.07
2023-06-17T17:24:15.066Z,2.90
2023-06-17T17:26:44.726Z,2.87
2023-06-17T17:29:13.006Z,3.00
2023-06-17T17:31:41.362Z,2.73
2023-06-17T17:34:09.666Z,3.07
2023-06-17T17:36:38.081Z,3.13
2023-06-17T17:39:07.971Z,2.87
2023-06-17T17:41:36.382Z,3.03
2023-06-17T17:44:06.278Z,3.33
2023-06-17T17:46:34.622Z,3.17
2023-06-17T17:49:03.059Z,3.53
2023-06-17T17:51:31.393Z,3.67
2023-06-17T17:53:59.719Z,3.57
2023-06-17T17:56:28.575Z,3.83
2023-06-17T17:59:00.074Z,3.13
2023-06-17T18:01:29.922Z,3.57
2023-06-17T18:03:58.802Z,2.87
2023-06-17T18:06:30.397Z,3.30
2023-06-17T18:08:59.016Z,6.30
2023-06-17T18:11:28.385Z,5.97
2023-06-17T18:13:56.934Z,5.73
2023-06-17T18:16:25.469Z,5.10
2023-06-17T18:18:55.265Z,4.33
2023-06-17T18:21:28.192Z,3.47
2023-06-17T18:23:56.712Z,3.23
2023-06-17T18:26:25.429Z,3.80
2023-06-17T18:28:53.833Z,3.53
2023-06-17T18:31:22.103Z,2.73
2023-06-17T18:33:50.735Z,3.40
2023-06-17T18:36:21.011Z,3.30
2023-06-17T18:38:49.388Z,3.03
2023-06-17T18:41:17.732Z,3.10
2023-06-17T18:43:46.259Z,3.20
2023-06-17T18:46:14.772Z,2.77
2023-06-17T18:48:44.796Z,2.70
2023-06-17T18:51:13.128Z,3.10
2023-06-17T18:53:43.143Z,3.27
2023-06-17T18:56:11.651Z,2.93
2023-06-17T18:58:40.098Z,3.20
2023-06-17T19:01:08.569Z,2.90
2023-06-17T19:03:37.606Z,3.30
2023-06-17T19:06:06.358Z,3.07
2023-06-17T19:08:34.740Z,3.23
2023-06-17T19:11:04.472Z,3.10
2023-06-17T19:13:32.736Z,2.87
2023-06-17T19:16:01.122Z,3.73
2023-06-17T19:18:29.382Z,3.70
2023-06-17T19:20:57.693Z,2.80
2023-06-17T19:23:26.089Z,3.30
2023-06-17T19:25:54.598Z,3.73
2023-06-17T19:28:24.966Z,3.57
2023-06-17T19:30:53.301Z,2.70
2023-06-17T19:33:22.439Z,3.00
2023-06-17T19:35:50.778Z,3.77
2023-06-17T19:38:19.151Z,3.27
2023-06-17T19:40:47.596Z,3.40
2023-06-17T19:43:20.678Z,3.40
2023-06-17T19:45:53.190Z,3.80
2023-06-17T19:48:22.069Z,3.30
2023-06-17T19:50:50.744Z,3.30
2023-06-17T19:53:19.046Z,3.53
2023-06-17T19:55:47.420Z,3.83
2023-06-17T19:58:15.963Z,3.57
2023-06-17T20:00:44.262Z,3.33
2023-06-17T20:03:14.674Z,4.00
2023-06-17T20:05:43.211Z,5.10
2023-06-17T20:08:11.553Z,5.23
2023-06-17T20:10:40.332Z,4.80
2023-06-17T20:13:09.964Z,4.90
2023-06-17T20:15:38.618Z,6.87
2023-06-17T20:18:07.125Z,5.30
2023-06-17T20:20:36.814Z,5.40
2023-06-17T20:23:09.120Z,4.10
2023-06-17T20:25:37.548Z,4.10
2023-06-17T20:28:06.167Z,4.33
2023-06-17T20:30:34.490Z,4.17
2023-06-17T20:33:04.829Z,3.73
2023-06-17T20:35:33.261Z,4.70
2023-06-17T20:38:02.966Z,4.63
2023-06-17T20:40:31.594Z,4.27
2023-06-17T20:42:59.957Z,4.50
2023-06-17T20:45:28.343Z,5.00
2023-06-17T20:47:56.789Z,4.53
2023-06-17T20:50:27.316Z,3.50
2023-06-17T20:52:57.441Z,4.10
2023-06-17T20:55:29.830Z,4.20
2023-06-17T20:57:58.440Z,4.13
2023-06-17T21:00:30.893Z,4.63
2023-06-17T21:02:59.327Z,4.37
2023-06-17T21:05:27.897Z,4.90
2023-06-17T21:07:56.759Z,5.20
2023-06-17T21:10:25.258Z,4.50
2023-06-17T21:12:54.965Z,4.00
2023-06-17T21:15:23.597Z,4.20
2023-06-17T21:17:52.090Z,5.33
2023-06-17T21:20:21.774Z,5.27
2023-06-17T21:22:54.550Z,4.97
2023-06-17T21:25:23.341Z,4.27
2023-06-17T21:27:51.822Z,4.40
2023-06-17T21:30:21.938Z,4.20
2023-06-17T21:32:50.590Z,4.63
2023-06-17T21:35:19.290Z,4.97
2023-06-17T21:37:47.634Z,4.57
2023-06-17T21:40:16.079Z,4.33
2023-06-17T21:42:44.641Z,4.77
2023-06-17T21:45:13.318Z,4.60
2023-06-17T21:47:43.192Z,5.13
2023-06-17T21:50:12.246Z,4.87
2023-06-17T21:52:40.776Z,5.03
2023-06-17T21:55:10.653Z,5.40
2023-06-17T21:57:39.146Z,5.60
2023-06-17T22:00:10.812Z,5.23
2023-06-17T22:02:43.872Z,5.40
2023-06-17T22:05:12.400Z,5.20
2023-06-17T22:07:40.834Z,5.10
2023-06-17T22:10:10.089Z,4.87
2023-06-17T22:12:38.617Z,4.40
2023-06-17T22:15:08.282Z,4.30
2023-06-17T22:17:36.754Z,4.60
2023-06-17T22:20:07.717Z,4.87
2023-06-17T22:22:36.026Z,4.80
2023-06-17T22:25:06.609Z,4.53
2023-06-17T22:27:36.054Z,5.53
2023-06-17T22:30:04.676Z,4.93
2023-06-17T22:32:33.086Z,4.80
2023-06-17T22:35:01.592Z,5.00
2023-06-17T22:37:31.315Z,5.20
2023-06-17T22:39:59.675Z,4.80
2023-06-17T22:42:27.991Z,5.03
2023-06-17T22:44:56.587Z,5.40
2023-06-17T22:47:25.060Z,6.30
2023-06-17T22:49:53.494Z,6.23
2023-06-17T22:52:22.033Z,5.60
2023-06-17T22:54:51.896Z,4.93
2023-06-17T22:57:20.509Z,4.53
2023-06-17T22:59:48.826Z,5.27
2023-06-17T23:02:17.250Z,5.57
2023-06-17T23:04:45.686Z,5.40
2023-06-17T23:07:14.111Z,4.53
2023-06-17T23:09:42.507Z,5.13
2023-06-17T23:12:12.858Z,4.93
2023-06-17T23:14:41.225Z,5.43
2023-06-17T23:17:09.584Z,5.80
2023-06-17T23:19:37.886Z,6.10
2023-06-17T23:22:07.581Z,5.87
2023-06-17T23:24:36.248Z,5.50
2023-06-17T23:27:05.421Z,5.23
2023-06-17T23:29:36.544Z,6.30
2023-06-17T23:32:05.354Z,5.57
2023-06-17T23:34:33.786Z,5.07
2023-06-17T23:37:02.519Z,5.40
2023-06-17T23:39:31.029Z,5.93
2023-06-17T23:41:59.275Z,5.43
2023-06-17T23:44:27.626Z,6.13
2023-06-17T23:46:57.357Z,5.30
2023-06-17T23:49:25.634Z,6.03
2023-06-17T23:51:53.928Z,6.87
2023-06-17T23:54:22.251Z,6.40
2023-06-17T23:56:50.720Z,6.50
2023-06-17T23:59:19.033Z,5.10
